sensor_id;sensor_type;location;lat;lon;timestamp;pressure;altitude;pressure_sealevel;temperature;humidity
63194;BME280;49289;51.670;5.624;2023-07-13T00:00:48;101536.44;;;25.23;42.15
63194;BME280;49289;51.670;5.624;2023-07-13T00:02:36;101530.06;;;24.70;43.02
63194;BME280;49289;51.670;5.624;2023-07-13T00:04:24;101537.86;;;25.05;42.90
63194;BME280;49289;51.670;5.624;2023-07-13T00:06:11;101519.62;;;25.01;42.60
63194;BME280;49289;51.670;5.624;2023-07-13T00:07:59;101543.70;;;24.64;42.81
63194;BME280;49289;51.670;5.624;2023-07-13T00:09:47;101546.08;;;24.87;42.78
63194;BME280;49289;51.670;5.624;2023-07-13T00:11:34;101548.37;;;24.80;43.03
63194;BME280;49289;51.670;5.624;2023-07-13T00:13:21;101546.42;;;24.71;43.26
63194;BME280;49289;51.670;5.624;2023-07-13T00:15:13;101547.80;;;24.77;43.03
63194;BME280;49289;51.670;5.624;2023-07-13T00:16:58;101530.65;;;24.34;43.72
63194;BME280;49289;51.670;5.624;2023-07-13T00:18:47;101529.80;;;24.07;44.08
63194;BME280;49289;51.670;5.624;2023-07-13T00:20:35;101546.28;;;23.88;44.87
63194;BME280;49289;51.670;5.624;2023-07-13T00:22:22;101540.85;;;23.72;45.57
63194;BME280;49289;51.670;5.624;2023-07-13T00:24:11;101540.72;;;23.96;45.33
63194;BME280;49289;51.670;5.624;2023-07-13T00:25:57;101535.74;;;24.02;45.05
63194;BME280;49289;51.670;5.624;2023-07-13T00:27:44;101540.63;;;23.96;44.94
63194;BME280;49289;51.670;5.624;2023-07-13T00:29:31;101542.27;;;24.11;44.99
63194;BME280;49289;51.670;5.624;2023-07-13T00:31:20;101523.48;;;23.77;45.50
63194;BME280;49289;51.670;5.624;2023-07-13T00:33:07;101546.98;;;24.44;44.54
63194;BME280;49289;51.670;5.624;2023-07-13T00:34:56;101541.17;;;24.60;44.50
63194;BME280;49289;51.670;5.624;2023-07-13T00:36:44;101533.44;;;24.67;44.08
63194;BME280;49289;51.670;5.624;2023-07-13T00:38:32;101525.01;;;24.56;44.36
63194;BME280;49289;51.670;5.624;2023-07-13T00:40:21;101510.08;;;24.37;44.24
63194;BME280;49289;51.670;5.624;2023-07-13T00:42:10;101511.81;;;24.58;44.38
63194;BME280;49289;51.670;5.624;2023-07-13T00:43:57;101534.89;;;24.46;44.31
63194;BME280;49289;51.670;5.624;2023-07-13T00:47:59;101546.39;;;24.64;44.37
63194;BME280;49289;51.670;5.624;2023-07-13T00:49:46;101542.37;;;24.55;44.62
63194;BME280;49289;51.670;5.624;2023-07-13T00:51:39;101522.73;;;23.87;45.00
63194;BME280;49289;51.670;5.624;2023-07-13T00:53:27;101526.30;;;23.93;44.82
63194;BME280;49289;51.670;5.624;2023-07-13T00:55:14;101551.95;;;23.96;45.44
63194;BME280;49289;51.670;5.624;2023-07-13T00:57:03;101541.24;;;23.06;46.83
63194;BME280;49289;51.670;5.624;2023-07-13T00:58:50;101537.38;;;23.22;47.00
63194;BME280;49289;51.670;5.624;2023-07-13T01:00:38;101540.48;;;23.14;46.80
63194;BME280;49289;51.670;5.624;2023-07-13T01:02:30;101562.91;;;23.64;46.57
63194;BME280;49289;51.670;5.624;2023-07-13T01:04:30;101561.43;;;23.40;46.83
63194;BME280;49289;51.670;5.624;2023-07-13T01:06:26;101548.86;;;23.08;46.95
63194;BME280;49289;51.670;5.624;2023-07-13T01:08:14;101532.52;;;23.81;46.18
63194;BME280;49289;51.670;5.624;2023-07-13T01:10:01;101553.81;;;24.18;45.90
63194;BME280;49289;51.670;5.624;2023-07-13T01:11:48;101551.32;;;23.74;46.44
63194;BME280;49289;51.670;5.624;2023-07-13T01:13:35;101546.80;;;24.11;46.28
63194;BME280;49289;51.670;5.624;2023-07-13T01:17:41;101548.55;;;24.62;45.02
63194;BME280;49289;51.670;5.624;2023-07-13T01:19:36;101546.47;;;24.59;44.62
63194;BME280;49289;51.670;5.624;2023-07-13T01:21:22;101543.59;;;24.66;44.34
63194;BME280;49289;51.670;5.624;2023-07-13T01:23:11;101548.80;;;24.49;44.67
63194;BME280;49289;51.670;5.624;2023-07-13T01:24:58;101556.42;;;24.24;45.28
63194;BME280;49289;51.670;5.624;2023-07-13T01:26:45;101559.31;;;24.00;45.74
63194;BME280;49289;51.670;5.624;2023-07-13T01:28:33;101562.22;;;24.15;45.76
63194;BME280;49289;51.670;5.624;2023-07-13T01:30:21;101546.55;;;23.57;46.33
63194;BME280;49289;51.670;5.624;2023-07-13T01:32:13;101538.89;;;23.42;46.77
63194;BME280;49289;51.670;5.624;2023-07-13T01:34:00;101562.81;;;23.71;46.88
63194;BME280;49289;51.670;5.624;2023-07-13T01:35:49;101534.91;;;23.68;46.83
63194;BME280;49289;51.670;5.624;2023-07-13T01:37:37;101543.94;;;23.87;46.51
63194;BME280;49289;51.670;5.624;2023-07-13T01:39:24;101561.62;;;23.88;46.48
63194;BME280;49289;51.670;5.624;2023-07-13T01:41:12;101555.32;;;23.82;46.74
63194;BME280;49289;51.670;5.624;2023-07-13T01:42:59;101562.84;;;24.05;46.41
63194;BME280;49289;51.670;5.624;2023-07-13T01:44:46;101563.27;;;24.06;46.45
63194;BME280;49289;51.670;5.624;2023-07-13T01:46:35;101563.20;;;23.78;46.65
63194;BME280;49289;51.670;5.624;2023-07-13T01:48:23;101560.28;;;23.47;47.75
63194;BME280;49289;51.670;5.624;2023-07-13T01:50:10;101560.80;;;23.59;47.48
63194;BME280;49289;51.670;5.624;2023-07-13T01:51:58;101561.61;;;23.28;47.83
63194;BME280;49289;51.670;5.624;2023-07-13T01:53:47;101568.53;;;23.11;48.67
63194;BME280;49289;51.670;5.624;2023-07-13T01:55:35;101565.48;;;22.94;49.11
63194;BME280;49289;51.670;5.624;2023-07-13T01:57:23;101548.00;;;22.80;49.22
63194;BME280;49289;51.670;5.624;2023-07-13T01:59:11;101567.66;;;22.74;50.10
63194;BME280;49289;51.670;5.624;2023-07-13T02:01:00;101534.18;;;22.70;49.22
63194;BME280;49289;51.670;5.624;2023-07-13T02:02:50;101537.61;;;22.99;49.10
63194;BME280;49289;51.670;5.624;2023-07-13T02:04:38;101535.97;;;23.13;48.60
63194;BME280;49289;51.670;5.624;2023-07-13T02:06:26;101565.68;;;22.62;50.09
63194;BME280;49289;51.670;5.624;2023-07-13T02:08:14;101538.36;;;22.86;49.39
63194;BME280;49289;51.670;5.624;2023-07-13T02:10:02;101568.02;;;22.40;50.13
63194;BME280;49289;51.670;5.624;2023-07-13T02:11:50;101540.44;;;22.63;50.37
63194;BME280;49289;51.670;5.624;2023-07-13T02:13:37;101562.34;;;23.11;49.63
63194;BME280;49289;51.670;5.624;2023-07-13T02:15:24;101564.52;;;23.22;49.32
63194;BME280;49289;51.670;5.624;2023-07-13T02:17:13;101539.98;;;23.15;49.35
63194;BME280;49289;51.670;5.624;2023-07-13T02:19:01;101560.11;;;23.24;49.19
63194;BME280;49289;51.670;5.624;2023-07-13T02:20:49;101563.67;;;23.20;49.40
63194;BME280;49289;51.670;5.624;2023-07-13T02:22:36;101541.84;;;23.32;49.13
63194;BME280;49289;51.670;5.624;2023-07-13T02:24:23;101566.80;;;22.66;50.39
63194;BME280;49289;51.670;5.624;2023-07-13T02:26:13;101547.74;;;21.90;52.97
63194;BME280;49289;51.670;5.624;2023-07-13T02:28:01;101571.93;;;22.34;51.78
63194;BME280;49289;51.670;5.624;2023-07-13T02:29:51;101546.59;;;22.38;51.70
63194;BME280;49289;51.670;5.624;2023-07-13T02:31:39;101550.41;;;22.11;52.49
63194;BME280;49289;51.670;5.624;2023-07-13T02:33:28;101576.55;;;21.85;54.26
63194;BME280;49289;51.670;5.624;2023-07-13T02:35:16;101577.38;;;22.39;52.75
63194;BME280;49289;51.670;5.624;2023-07-13T02:37:05;101576.45;;;22.54;52.08
63194;BME280;49289;51.670;5.624;2023-07-13T02:38:53;101550.70;;;22.40;51.92
63194;BME280;49289;51.670;5.624;2023-07-13T02:40:40;101563.05;;;22.84;51.39
63194;BME280;49289;51.670;5.624;2023-07-13T02:42:27;101569.23;;;22.66;51.06
63194;BME280;49289;51.670;5.624;2023-07-13T02:44:17;101546.98;;;22.72;51.49
63194;BME280;49289;51.670;5.624;2023-07-13T02:46:06;101569.48;;;22.44;52.25
63194;BME280;49289;51.670;5.624;2023-07-13T02:47:54;101571.16;;;22.65;52.17
63194;BME280;49289;51.670;5.624;2023-07-13T02:49:42;101554.34;;;22.64;51.49
63194;BME280;49289;51.670;5.624;2023-07-13T02:51:30;101574.44;;;22.87;51.42
63194;BME280;49289;51.670;5.624;2023-07-13T02:53:17;101584.03;;;22.28;53.33
63194;BME280;49289;51.670;5.624;2023-07-13T02:55:04;101582.97;;;22.52;52.57
63194;BME280;49289;51.670;5.624;2023-07-13T02:56:54;101584.25;;;21.87;53.92
63194;BME280;49289;51.670;5.624;2023-07-13T02:58:42;101587.92;;;22.56;53.03
63194;BME280;49289;51.670;5.624;2023-07-13T03:00:30;101585.94;;;22.13;54.00
63194;BME280;49289;51.670;5.624;2023-07-13T03:02:18;101586.31;;;22.35;53.59
63194;BME280;49289;51.670;5.624;2023-07-13T03:04:06;101564.88;;;21.91;53.03
63194;BME280;49289;51.670;5.624;2023-07-13T03:05:57;101569.64;;;22.44;52.72
63194;BME280;49289;51.670;5.624;2023-07-13T03:07:42;101559.70;;;22.69;52.13
63194;BME280;49289;51.670;5.624;2023-07-13T03:09:30;101590.00;;;22.90;52.01
63194;BME280;49289;51.670;5.624;2023-07-13T03:11:19;101568.31;;;22.66;52.35
63194;BME280;49289;51.670;5.624;2023-07-13T03:13:06;101571.59;;;21.96;53.53
63194;BME280;49289;51.670;5.624;2023-07-13T03:14:53;101575.30;;;22.40;53.24
63194;BME280;49289;51.670;5.624;2023-07-13T03:16:40;101590.92;;;22.38;53.38
63194;BME280;49289;51.670;5.624;2023-07-13T03:18:29;101594.75;;;22.67;53.04
63194;BME280;49289;51.670;5.624;2023-07-13T03:20:19;101586.49;;;22.80;52.95
63194;BME280;49289;51.670;5.624;2023-07-13T03:22:06;101587.17;;;22.97;52.21
63194;BME280;49289;51.670;5.624;2023-07-13T03:23:54;101587.82;;;22.85;52.26
63194;BME280;49289;51.670;5.624;2023-07-13T03:25:42;101565.24;;;22.55;52.71
63194;BME280;49289;51.670;5.624;2023-07-13T03:27:29;101587.14;;;22.68;52.71
63194;BME280;49289;51.670;5.624;2023-07-13T03:29:18;101594.75;;;22.68;52.70
63194;BME280;49289;51.670;5.624;2023-07-13T03:31:12;101597.66;;;22.26;54.28
63194;BME280;49289;51.670;5.624;2023-07-13T03:32:58;101588.98;;;22.71;53.19
63194;BME280;49289;51.670;5.624;2023-07-13T03:34:46;101594.70;;;22.60;53.34
63194;BME280;49289;51.670;5.624;2023-07-13T03:36:34;101574.34;;;22.66;52.57
63194;BME280;49289;51.670;5.624;2023-07-13T03:38:22;101603.23;;;22.61;52.95
63194;BME280;49289;51.670;5.624;2023-07-13T03:40:10;101607.36;;;22.27;54.27
63194;BME280;49289;51.670;5.624;2023-07-13T03:41:57;101606.48;;;22.77;52.93
63194;BME280;49289;51.670;5.624;2023-07-13T03:43:44;101590.63;;;22.24;53.80
63194;BME280;49289;51.670;5.624;2023-07-13T03:45:33;101589.66;;;21.43;56.42
63194;BME280;49289;51.670;5.624;2023-07-13T03:47:21;101607.39;;;22.37;54.74
63194;BME280;49289;51.670;5.624;2023-07-13T03:49:08;101606.63;;;21.85;55.10
63194;BME280;49289;51.670;5.624;2023-07-13T03:50:56;101608.06;;;22.36;54.70
63194;BME280;49289;51.670;5.624;2023-07-13T03:52:43;101612.48;;;22.33;54.67
63194;BME280;49289;51.670;5.624;2023-07-13T03:54:30;101592.95;;;21.67;56.12
63194;BME280;49289;51.670;5.624;2023-07-13T03:56:19;101620.08;;;22.19;55.28
63194;BME280;49289;51.670;5.624;2023-07-13T03:58:22;101619.92;;;22.33;54.90
63194;BME280;49289;51.670;5.624;2023-07-13T04:00:00;101594.27;;;22.36;54.72
63194;BME280;49289;51.670;5.624;2023-07-13T04:01:49;101622.02;;;22.01;55.56
63194;BME280;49289;51.670;5.624;2023-07-13T04:03:37;101616.71;;;22.03;55.58
63194;BME280;49289;51.670;5.624;2023-07-13T04:05:24;101616.58;;;22.45;54.75
63194;BME280;49289;51.670;5.624;2023-07-13T04:07:11;101605.70;;;21.84;56.29
63194;BME280;49289;51.670;5.624;2023-07-13T04:09:00;101626.08;;;22.25;55.70
63194;BME280;49289;51.670;5.624;2023-07-13T04:10:48;101623.67;;;21.99;56.50
63194;BME280;49289;51.670;5.624;2023-07-13T04:12:36;101626.25;;;21.97;56.15
63194;BME280;49289;51.670;5.624;2023-07-13T04:14:25;101609.56;;;22.05;56.16
63194;BME280;49289;51.670;5.624;2023-07-13T04:16:14;101632.27;;;22.25;56.34
63194;BME280;49289;51.670;5.624;2023-07-13T04:18:01;101634.73;;;22.22;56.00
63194;BME280;49289;51.670;5.624;2023-07-13T04:19:49;101638.26;;;22.50;55.70
63194;BME280;49289;51.670;5.624;2023-07-13T04:21:37;101612.66;;;22.38;55.45
63194;BME280;49289;51.670;5.624;2023-07-13T04:23:24;101627.81;;;21.70;57.37
63194;BME280;49289;51.670;5.624;2023-07-13T04:25:12;101639.78;;;21.95;57.66
63194;BME280;49289;51.670;5.624;2023-07-13T04:27:00;101616.22;;;21.95;57.02
63194;BME280;49289;51.670;5.624;2023-07-13T04:28:48;101616.94;;;22.10;56.70
63194;BME280;49289;51.670;5.624;2023-07-13T04:30:36;101643.16;;;22.05;57.22
63194;BME280;49289;51.670;5.624;2023-07-13T04:32:23;101642.50;;;21.88;57.91
63194;BME280;49289;51.670;5.624;2023-07-13T04:34:12;101646.13;;;21.73;59.19
63194;BME280;49289;51.670;5.624;2023-07-13T04:36:00;101625.85;;;21.47;59.75
63194;BME280;49289;51.670;5.624;2023-07-13T04:37:48;101626.78;;;21.42;60.03
63194;BME280;49289;51.670;5.624;2023-07-13T04:39:35;101652.45;;;21.27;60.18
63194;BME280;49289;51.670;5.624;2023-07-13T04:41:22;101648.30;;;21.73;60.04
63194;BME280;49289;51.670;5.624;2023-07-13T04:43:09;101653.60;;;22.18;58.90
63194;BME280;49289;51.670;5.624;2023-07-13T04:45:00;101632.30;;;21.79;59.62
63194;BME280;49289;51.670;5.624;2023-07-13T04:46:47;101654.60;;;21.78;59.84
63194;BME280;49289;51.670;5.624;2023-07-13T04:48:34;101651.22;;;21.73;60.50
63194;BME280;49289;51.670;5.624;2023-07-13T04:50:22;101655.34;;;21.84;60.18
63194;BME280;49289;51.670;5.624;2023-07-13T04:52:10;101659.45;;;21.51;61.88
63194;BME280;49289;51.670;5.624;2023-07-13T04:53:57;101660.08;;;22.09;60.12
63194;BME280;49289;51.670;5.624;2023-07-13T04:55:44;101659.77;;;22.13;59.68
63194;BME280;49289;51.670;5.624;2023-07-13T04:57:31;101662.62;;;21.78;60.58
63194;BME280;49289;51.670;5.624;2023-07-13T04:59:20;101663.46;;;22.17;60.62
63194;BME280;49289;51.670;5.624;2023-07-13T05:01:12;101638.98;;;22.44;59.01
63194;BME280;49289;51.670;5.624;2023-07-13T05:03:00;101656.35;;;21.78;59.72
63194;BME280;49289;51.670;5.624;2023-07-13T05:04:48;101659.33;;;22.10;60.72
63194;BME280;49289;51.670;5.624;2023-07-13T05:06:35;101665.02;;;22.04;60.99
63194;BME280;49289;51.670;5.624;2023-07-13T05:08:22;101659.47;;;22.05;61.99
63194;BME280;49289;51.670;5.624;2023-07-13T05:10:10;101669.59;;;22.31;61.07
63194;BME280;49289;51.670;5.624;2023-07-13T05:11:57;101666.38;;;22.40;60.93
63194;BME280;49289;51.670;5.624;2023-07-13T05:13:46;101652.08;;;22.15;61.01
63194;BME280;49289;51.670;5.624;2023-07-13T05:15:33;101675.33;;;22.25;61.24
63194;BME280;49289;51.670;5.624;2023-07-13T05:17:22;101662.50;;;22.36;61.35
63194;BME280;49289;51.670;5.624;2023-07-13T05:19:09;101671.97;;;21.96;63.92
63194;BME280;49289;51.670;5.624;2023-07-13T05:21:03;101652.16;;;22.23;62.52
63194;BME280;49289;51.670;5.624;2023-07-13T05:22:51;101675.25;;;22.00;63.86
63194;BME280;49289;51.670;5.624;2023-07-13T05:24:39;101655.33;;;21.95;64.33
63194;BME280;49289;51.670;5.624;2023-07-13T05:26:27;101678.76;;;21.99;64.86
63194;BME280;49289;51.670;5.624;2023-07-13T05:28:14;101682.05;;;21.74;65.04
63194;BME280;49289;51.670;5.624;2023-07-13T05:30:02;101678.20;;;22.08;65.04
63194;BME280;49289;51.670;5.624;2023-07-13T05:31:50;101664.94;;;22.38;63.23
63194;BME280;49289;51.670;5.624;2023-07-13T05:33:38;101673.36;;;22.62;62.41
63194;BME280;49289;51.670;5.624;2023-07-13T05:35:25;101697.70;;;22.34;64.13
63194;BME280;49289;51.670;5.624;2023-07-13T05:37:12;101697.26;;;22.06;65.39
63194;BME280;49289;51.670;5.624;2023-07-13T05:38:59;101700.44;;;22.20;64.87
63194;BME280;49289;51.670;5.624;2023-07-13T05:40:48;101668.23;;;21.70;67.14
63194;BME280;49289;51.670;5.624;2023-07-13T05:42:36;101698.42;;;22.28;65.11
63194;BME280;49289;51.670;5.624;2023-07-13T05:44:23;101698.23;;;21.69;67.55
63194;BME280;49289;51.670;5.624;2023-07-13T05:46:10;101677.91;;;22.50;64.26
63194;BME280;49289;51.670;5.624;2023-07-13T05:47:57;101698.95;;;22.62;64.25
63194;BME280;49289;51.670;5.624;2023-07-13T05:49:46;101679.53;;;22.59;64.04
63194;BME280;49289;51.670;5.624;2023-07-13T05:51:34;101701.00;;;23.15;62.91
63194;BME280;49289;51.670;5.624;2023-07-13T05:53:21;101702.23;;;22.14;66.03
63194;BME280;49289;51.670;5.624;2023-07-13T05:55:09;101708.48;;;22.70;63.94
63194;BME280;49289;51.670;5.624;2023-07-13T05:56:56;101711.16;;;22.58;65.21
63194;BME280;49289;51.670;5.624;2023-07-13T05:58:43;101707.67;;;23.03;63.42
63194;BME280;49289;51.670;5.624;2023-07-13T06:00:31;101707.06;;;22.72;64.30
63194;BME280;49289;51.670;5.624;2023-07-13T06:02:20;101686.45;;;22.52;64.74
63194;BME280;49289;51.670;5.624;2023-07-13T06:04:07;101716.31;;;23.08;63.25
63194;BME280;49289;51.670;5.624;2023-07-13T06:05:56;101712.99;;;22.99;63.73
63194;BME280;49289;51.670;5.624;2023-07-13T06:07:44;101684.42;;;23.16;62.50
63194;BME280;49289;51.670;5.624;2023-07-13T06:09:32;101713.49;;;22.82;63.92
63194;BME280;49289;51.670;5.624;2023-07-13T06:11:20;101719.56;;;22.80;63.70
63194;BME280;49289;51.670;5.624;2023-07-13T06:13:06;101719.39;;;22.84;64.61
63194;BME280;49289;51.670;5.624;2023-07-13T06:14:55;101721.67;;;23.32;63.43
63194;BME280;49289;51.670;5.624;2023-07-13T06:16:43;101721.89;;;23.48;62.21
63194;BME280;49289;51.670;5.624;2023-07-13T06:18:30;101724.77;;;23.05;62.91
63194;BME280;49289;51.670;5.624;2023-07-13T06:20:18;101723.84;;;23.28;62.65
63194;BME280;49289;51.670;5.624;2023-07-13T06:22:07;101730.63;;;23.09;63.05
63194;BME280;49289;51.670;5.624;2023-07-13T06:23:55;101724.33;;;22.39;65.65
63194;BME280;49289;51.670;5.624;2023-07-13T06:25:42;101707.27;;;22.89;64.37
63194;BME280;49289;51.670;5.624;2023-07-13T06:27:29;101723.81;;;23.68;61.71
63194;BME280;49289;51.670;5.624;2023-07-13T06:29:16;101733.38;;;22.85;64.22
63194;BME280;49289;51.670;5.624;2023-07-13T06:31:05;101736.01;;;22.97;63.51
63194;BME280;49289;51.670;5.624;2023-07-13T06:32:54;101729.13;;;22.68;64.43
63194;BME280;49289;51.670;5.624;2023-07-13T06:34:41;101733.15;;;22.68;66.10
63194;BME280;49289;51.670;5.624;2023-07-13T06:36:28;101708.08;;;22.61;65.64
63194;BME280;49289;51.670;5.624;2023-07-13T06:38:15;101725.52;;;23.27;63.49
63194;BME280;49289;51.670;5.624;2023-07-13T06:40:04;101726.33;;;23.43;62.66
63194;BME280;49289;51.670;5.624;2023-07-13T06:41:52;101738.59;;;23.33;62.70
63194;BME280;49289;51.670;5.624;2023-07-13T06:43:40;101738.78;;;23.02;62.98
63194;BME280;49289;51.670;5.624;2023-07-13T06:45:27;101740.02;;;23.32;63.90
63194;BME280;49289;51.670;5.624;2023-07-13T06:47:18;101740.65;;;23.64;62.21
63194;BME280;49289;51.670;5.624;2023-07-13T06:49:03;101741.61;;;23.85;61.84
63194;BME280;49289;51.670;5.624;2023-07-13T06:50:50;101733.95;;;23.82;61.41
63194;BME280;49289;51.670;5.624;2023-07-13T06:52:37;101732.02;;;23.63;61.70
63194;BME280;49289;51.670;5.624;2023-07-13T06:55:23;101746.39;;;22.97;63.84
63194;BME280;49289;51.670;5.624;2023-07-13T06:57:11;101716.09;;;23.00;64.06
63194;BME280;49289;51.670;5.624;2023-07-13T06:58:58;101725.94;;;23.06;64.02
63194;BME280;49289;51.670;5.624;2023-07-13T07:00:46;101746.40;;;23.61;62.79
63194;BME280;49289;51.670;5.624;2023-07-13T07:02:32;101746.80;;;23.95;60.91
63194;BME280;49289;51.670;5.624;2023-07-13T07:04:19;101744.73;;;23.62;62.07
63194;BME280;49289;51.670;5.624;2023-07-13T07:06:15;101728.84;;;23.70;60.59
63194;BME280;49289;51.670;5.624;2023-07-13T07:08:03;101752.89;;;23.52;61.59
63194;BME280;49289;51.670;5.624;2023-07-13T07:09:51;101735.71;;;23.45;61.82
63194;BME280;49289;51.670;5.624;2023-07-13T07:11:38;101756.20;;;23.58;61.59
63194;BME280;49289;51.670;5.624;2023-07-13T07:13:25;101758.00;;;22.34;66.97
63194;BME280;49289;51.670;5.624;2023-07-13T07:15:14;101740.45;;;23.15;64.60
63194;BME280;49289;51.670;5.624;2023-07-13T07:17:01;101743.78;;;23.34;63.10
63194;BME280;49289;51.670;5.624;2023-07-13T07:18:49;101764.56;;;23.35;63.96
63194;BME280;49289;51.670;5.624;2023-07-13T07:20:36;101741.84;;;23.03;63.75
63194;BME280;49289;51.670;5.624;2023-07-13T07:22:23;101762.56;;;23.41;63.20
63194;BME280;49289;51.670;5.624;2023-07-13T07:24:12;101740.84;;;23.25;63.36
63194;BME280;49289;51.670;5.624;2023-07-13T07:26:00;101765.87;;;23.23;63.83
63194;BME280;49289;51.670;5.624;2023-07-13T07:27:47;101742.18;;;23.05;63.87
63194;BME280;49289;51.670;5.624;2023-07-13T07:29:34;101740.06;;;23.64;62.32
63194;BME280;49289;51.670;5.624;2023-07-13T07:31:23;101761.12;;;23.31;61.96
63194;BME280;49289;51.670;5.624;2023-07-13T07:33:11;101762.37;;;23.80;62.02
63194;BME280;49289;51.670;5.624;2023-07-13T07:34:58;101760.02;;;23.79;62.10
63194;BME280;49289;51.670;5.624;2023-07-13T07:36:45;101761.69;;;24.34;60.10
63194;BME280;49289;51.670;5.624;2023-07-13T07:38:34;101739.80;;;24.31;59.78
63194;BME280;49289;51.670;5.624;2023-07-13T07:40:22;101763.80;;;24.78;58.59
63194;BME280;49289;51.670;5.624;2023-07-13T07:42:10;101761.02;;;24.81;58.16
63194;BME280;49289;51.670;5.624;2023-07-13T07:43:58;101744.70;;;24.60;58.20
63194;BME280;49289;51.670;5.624;2023-07-13T07:45:48;101772.17;;;23.73;60.60
63194;BME280;49289;51.670;5.624;2023-07-13T07:47:36;101752.30;;;22.65;63.97
63194;BME280;49289;51.670;5.624;2023-07-13T07:49:24;101749.20;;;23.48;63.05
63194;BME280;49289;51.670;5.624;2023-07-13T07:51:11;101769.19;;;23.98;60.86
63194;BME280;49289;51.670;5.624;2023-07-13T07:52:58;101770.00;;;23.79;61.74
63194;BME280;49289;51.670;5.624;2023-07-13T07:54:47;101742.75;;;23.75;61.67
63194;BME280;49289;51.670;5.624;2023-07-13T07:56:35;101767.63;;;24.23;59.69
63194;BME280;49289;51.670;5.624;2023-07-13T07:58:22;101768.02;;;24.02;60.13
63194;BME280;49289;51.670;5.624;2023-07-13T08:00:10;101776.23;;;23.61;61.71
63194;BME280;49289;51.670;5.624;2023-07-13T08:01:57;101764.95;;;24.39;59.53
63194;BME280;49289;51.670;5.624;2023-07-13T08:03:46;101776.86;;;23.73;60.11
63194;BME280;49289;51.670;5.624;2023-07-13T08:05:34;101772.14;;;24.18;60.44
63194;BME280;49289;51.670;5.624;2023-07-13T08:07:21;101753.14;;;23.68;60.98
63194;BME280;49289;51.670;5.624;2023-07-13T08:09:08;101768.63;;;24.05;60.35
63194;BME280;49289;51.670;5.624;2023-07-13T08:10:55;101769.63;;;24.16;59.61
63194;BME280;49289;51.670;5.624;2023-07-13T08:12:46;101760.42;;;24.42;58.70
63194;BME280;49289;51.670;5.624;2023-07-13T08:14:33;101763.13;;;24.81;58.12
63194;BME280;49289;51.670;5.624;2023-07-13T08:16:20;101762.62;;;24.89;56.56
63194;BME280;49289;51.670;5.624;2023-07-13T08:18:07;101768.35;;;23.92;58.99
63194;BME280;49289;51.670;5.624;2023-07-13T08:19:56;101749.32;;;24.20;58.95
63194;BME280;49289;51.670;5.624;2023-07-13T08:21:44;101750.09;;;24.63;57.93
63194;BME280;49289;51.670;5.624;2023-07-13T08:23:31;101765.37;;;24.41;57.43
63194;BME280;49289;51.670;5.624;2023-07-13T08:25:19;101772.52;;;24.29;57.34
63194;BME280;49289;51.670;5.624;2023-07-13T08:27:06;101764.78;;;24.53;57.48
63194;BME280;49289;51.670;5.624;2023-07-13T08:28:54;101762.85;;;24.63;56.72
63194;BME280;49289;51.670;5.624;2023-07-13T08:30:42;101740.81;;;24.30;56.49
63194;BME280;49289;51.670;5.624;2023-07-13T08:32:30;101770.89;;;24.10;56.10
63194;BME280;49289;51.670;5.624;2023-07-13T08:34:17;101760.91;;;24.09;56.21
63194;BME280;49289;51.670;5.624;2023-07-13T08:36:04;101769.13;;;24.16;57.40
63194;BME280;49289;51.670;5.624;2023-07-13T08:37:51;101745.92;;;24.46;56.51
63194;BME280;49289;51.670;5.624;2023-07-13T08:39:40;101744.96;;;24.67;55.25
63194;BME280;49289;51.670;5.624;2023-07-13T08:41:28;101766.17;;;25.13;54.45
63194;BME280;49289;51.670;5.624;2023-07-13T08:43:17;101764.29;;;25.39;52.58
63194;BME280;49289;51.670;5.624;2023-07-13T08:45:07;101745.59;;;25.13;52.17
63194;BME280;49289;51.670;5.624;2023-07-13T08:46:55;101774.55;;;23.59;55.52
63194;BME280;49289;51.670;5.624;2023-07-13T08:48:44;101768.58;;;25.04;54.33
63194;BME280;49289;51.670;5.624;2023-07-13T08:50:31;101765.13;;;25.00;52.45
63194;BME280;49289;51.670;5.624;2023-07-13T08:52:21;101760.84;;;25.39;51.63
63194;BME280;49289;51.670;5.624;2023-07-13T08:54:08;101772.00;;;24.64;52.32
63194;BME280;49289;51.670;5.624;2023-07-13T08:55:56;101739.71;;;25.14;50.78
63194;BME280;49289;51.670;5.624;2023-07-13T08:57:43;101760.66;;;25.59;49.77
63194;BME280;49289;51.670;5.624;2023-07-13T08:59:30;101757.85;;;25.85;49.86
63194;BME280;49289;51.670;5.624;2023-07-13T09:01:21;101759.92;;;25.76;50.03
63194;BME280;49289;51.670;5.624;2023-07-13T09:03:09;101759.23;;;26.22;48.75
63194;BME280;49289;51.670;5.624;2023-07-13T09:04:57;101735.67;;;25.65;49.69
63194;BME280;49289;51.670;5.624;2023-07-13T09:06:55;101739.23;;;25.89;49.35
63194;BME280;49289;51.670;5.624;2023-07-13T09:08:51;101763.24;;;25.50;49.36
63194;BME280;49289;51.670;5.624;2023-07-13T09:10:37;101762.98;;;25.62;48.83
63194;BME280;49289;51.670;5.624;2023-07-13T09:12:26;101730.78;;;25.71;48.43
63194;BME280;49289;51.670;5.624;2023-07-13T09:14:19;101747.68;;;26.07;47.78
63194;BME280;49289;51.670;5.624;2023-07-13T09:16:06;101729.80;;;26.03;47.65
63194;BME280;49289;51.670;5.624;2023-07-13T09:17:55;101753.26;;;26.13;46.99
63194;BME280;49289;51.670;5.624;2023-07-13T09:19:44;101728.39;;;25.98;46.72
63194;BME280;49289;51.670;5.624;2023-07-13T09:21:34;101750.75;;;25.99;46.49
63194;BME280;49289;51.670;5.624;2023-07-13T09:23:23;101751.80;;;26.08;47.25
63194;BME280;49289;51.670;5.624;2023-07-13T09:25:12;101731.70;;;26.34;46.21
63194;BME280;49289;51.670;5.624;2023-07-13T09:26:59;101755.20;;;26.21;46.39
63194;BME280;49289;51.670;5.624;2023-07-13T09:28:48;101728.08;;;25.39;47.98
63194;BME280;49289;51.670;5.624;2023-07-13T09:30:40;101726.59;;;26.34;46.78